createdAt,value
2022-10-05T00:01:02.610Z,13.40
2022-10-05T00:03:39.364Z,13.43
2022-10-05T00:06:06.480Z,13.44
2022-10-05T00:08:34.801Z,13.38
2022-10-05T00:11:01.841Z,13.15
2022-10-05T00:13:31.038Z,13.33
2022-10-05T00:16:20.405Z,13.33
2022-10-05T00:18:51.146Z,13.47
2022-10-05T00:21:27.002Z,13.54
2022-10-05T00:23:57.839Z,13.59
2022-10-05T00:26:33.081Z,13.58
2022-10-05T00:29:01.864Z,13.65
2022-10-05T00:31:32.946Z,13.64
2022-10-05T00:33:59.780Z,13.60
2022-10-05T00:36:26.483Z,13.49
2022-10-05T00:38:54.562Z,13.16
2022-10-05T00:41:26.186Z,13.28
2022-10-05T00:44:20.967Z,13.12
2022-10-05T00:46:50.702Z,12.98
2022-10-05T00:49:36.187Z,12.71
2022-10-05T00:52:23.646Z,12.48
2022-10-05T00:55:21.768Z,12.39
2022-10-05T00:57:51.368Z,12.36
2022-10-05T01:00:22.992Z,12.26
2022-10-05T01:03:06.792Z,12.32
2022-10-05T01:05:45.553Z,12.68
2022-10-05T01:08:22.409Z,12.84
2022-10-05T01:11:01.323Z,12.85
2022-10-05T01:13:43.255Z,12.98
2022-10-05T01:16:31.814Z,12.92
2022-10-05T01:19:33.012Z,12.90
2022-10-05T01:22:37.337Z,12.90
2022-10-05T01:25:52.178Z,12.87
2022-10-05T01:28:35.675Z,12.64
2022-10-05T01:31:26.298Z,12.77
2022-10-05T01:34:13.381Z,12.64
2022-10-05T01:36:55.583Z,12.46
2022-10-05T01:39:28.742Z,12.56
2022-10-05T01:42:22.023Z,12.32
2022-10-05T01:45:00.474Z,12.17
2022-10-05T01:47:50.220Z,12.33
2022-10-05T01:50:27.282Z,11.84
2022-10-05T01:53:13.805Z,12.06
2022-10-05T01:55:56.445Z,12.21
2022-10-05T01:58:38.185Z,12.27
2022-10-05T02:01:14.049Z,12.17
2022-10-05T02:03:48.007Z,12.11
2022-10-05T02:06:22.441Z,12.12
2022-10-05T02:08:55.782Z,12.14
2022-10-05T02:11:22.469Z,12.12
2022-10-05T02:14:10.989Z,12.28
2022-10-05T02:16:46.867Z,12.18
2022-10-05T02:19:34.392Z,12.41
2022-10-05T02:22:08.181Z,12.38
2022-10-05T02:24:45.267Z,12.35
2022-10-05T02:27:15.120Z,12.45
2022-10-05T02:29:46.220Z,12.39
2022-10-05T02:32:24.112Z,12.56
2022-10-05T02:34:51.159Z,12.71
2022-10-05T02:37:45.763Z,12.62
2022-10-05T02:40:34.221Z,12.56
2022-10-05T02:43:10.204Z,12.46
2022-10-05T02:45:59.444Z,12.40
2022-10-05T02:48:52.242Z,12.50
2022-10-05T02:51:33.088Z,12.42
2022-10-05T02:54:08.712Z,12.26
2022-10-05T02:56:35.401Z,12.28
2022-10-05T02:59:11.092Z,12.00
2022-10-05T03:01:49.600Z,11.96
2022-10-05T03:04:35.011Z,12.22
2022-10-05T03:07:13.961Z,12.06
2022-10-05T03:09:58.890Z,11.86
2022-10-05T03:12:35.830Z,11.86
2022-10-05T03:15:35.790Z,11.79
2022-10-05T03:18:08.944Z,11.80
2022-10-05T03:20:44.519Z,11.76
2022-10-05T03:23:37.896Z,11.79
2022-10-05T03:26:23.191Z,11.79
2022-10-05T03:29:03.358Z,11.81
2022-10-05T03:31:37.629Z,11.68
2022-10-05T03:34:25.833Z,11.86
2022-10-05T03:37:04.579Z,11.88
2022-10-05T03:39:41.257Z,11.92
2022-10-05T03:42:45.290Z,11.89
2022-10-05T03:45:36.915Z,11.97
2022-10-05T03:48:30.493Z,11.85
2022-10-05T03:51:12.688Z,11.97
2022-10-05T03:53:47.427Z,11.83
2022-10-05T03:56:32.184Z,11.69
2022-10-05T03:59:20.610Z,11.50
2022-10-05T04:02:12.989Z,11.39
2022-10-05T04:05:03.368Z,11.48
2022-10-05T04:07:58.141Z,11.57
2022-10-05T04:10:35.787Z,11.58
2022-10-05T04:13:15.139Z,11.50
2022-10-05T04:15:50.628Z,11.52
2022-10-05T04:18:32.525Z,9.53
2022-10-05T04:21:05.607Z,10.72
2022-10-05T04:23:44.682Z,10.59
2022-10-05T04:26:17.967Z,10.69
2022-10-05T04:28:57.464Z,10.73
2022-10-05T04:32:03.014Z,10.87
2022-10-05T04:34:58.092Z,10.95
2022-10-05T04:37:50.116Z,11.04
2022-10-05T04:40:34.915Z,10.95
2022-10-05T04:43:16.845Z,11.07
2022-10-05T04:46:20.866Z,11.29
2022-10-05T04:49:05.793Z,11.31
2022-10-05T04:52:02.035Z,11.19
2022-10-05T04:54:47.065Z,11.22
2022-10-05T04:57:48.641Z,11.56
2022-10-05T05:00:23.057Z,11.53
2022-10-05T05:02:58.927Z,11.86
2022-10-05T05:05:31.780Z,11.95
2022-10-05T05:08:22.939Z,12.07
2022-10-05T05:11:20.070Z,12.40
2022-10-05T05:14:15.303Z,12.71
2022-10-05T05:16:45.896Z,12.79
2022-10-05T05:19:25.541Z,12.96
2022-10-05T05:21:58.645Z,13.13
2022-10-05T05:24:42.101Z,13.27
2022-10-05T05:27:45.888Z,13.20
2022-10-05T05:30:19.958Z,13.53
2022-10-05T05:33:11.464Z,13.28
2022-10-05T05:35:44.161Z,13.59
2022-10-05T05:38:35.069Z,14.07
2022-10-05T05:41:04.454Z,14.61
2022-10-05T05:43:53.399Z,14.58
2022-10-05T05:47:03.426Z,14.89
2022-10-05T05:49:39.755Z,14.46
2022-10-05T05:52:22.522Z,14.75
2022-10-05T05:55:02.182Z,15.41
2022-10-05T05:57:44.354Z,15.68
2022-10-05T06:00:14.462Z,16.02
2022-10-05T06:03:01.001Z,16.41
2022-10-05T06:05:39.440Z,17.00
2022-10-05T06:08:18.616Z,17.17
2022-10-05T06:10:53.357Z,17.50
2022-10-05T06:13:44.366Z,17.95
2022-10-05T06:16:29.743Z,17.88
2022-10-05T06:19:02.698Z,18.60
2022-10-05T06:21:38.587Z,18.45
2022-10-05T06:24:25.769Z,18.36
2022-10-05T06:27:16.931Z,18.63
2022-10-05T06:30:08.634Z,19.35
2022-10-05T06:32:50.339Z,18.30
2022-10-05T06:35:38.949Z,19.10
2022-10-05T06:38:24.004Z,19.43
2022-10-05T06:40:53.430Z,19.25
2022-10-05T06:43:41.986Z,19.75
2022-10-05T06:46:26.751Z,18.77
2022-10-05T06:49:04.089Z,18.71
2022-10-05T06:51:39.593Z,18.65
2022-10-05T06:54:21.270Z,18.86
2022-10-05T06:57:05.158Z,19.36
2022-10-05T06:59:52.083Z,19.21
2022-10-05T07:05:43.585Z,19.52
2022-10-05T07:08:16.135Z,19.83
2022-10-05T07:11:00.914Z,20.27
2022-10-05T07:14:01.938Z,20.34
2022-10-05T07:16:52.215Z,20.16
2022-10-05T07:19:42.774Z,20.34
2022-10-05T07:22:30.427Z,19.32
2022-10-05T07:25:35.611Z,19.01
2022-10-05T07:28:19.500Z,19.27
2022-10-05T07:31:00.682Z,19.17
2022-10-05T07:33:33.342Z,19.14
2022-10-05T07:36:31.474Z,19.69
2022-10-05T07:39:17.194Z,19.46
2022-10-05T07:41:50.767Z,20.27
2022-10-05T07:44:23.287Z,20.02
2022-10-05T07:46:53.495Z,20.77
2022-10-05T07:49:46.516Z,21.08
2022-10-05T07:52:24.732Z,21.61
2022-10-05T07:55:10.192Z,21.45
2022-10-05T07:57:52.737Z,20.68
2022-10-05T08:00:24.768Z,22.01
2022-10-05T08:02:58.547Z,22.37
2022-10-05T08:05:32.516Z,22.67
2022-10-05T08:08:13.223Z,22.47
2022-10-05T08:10:49.702Z,22.23
2022-10-05T08:13:47.470Z,21.60
2022-10-05T08:16:16.819Z,21.98
2022-10-05T08:18:58.992Z,22.08
2022-10-05T08:21:38.192Z,22.05
2022-10-05T08:24:23.327Z,21.45
2022-10-05T08:27:02.409Z,20.95
2022-10-05T08:29:35.731Z,21.44
2022-10-05T08:32:06.439Z,22.40
2022-10-05T08:34:45.829Z,22.94
2022-10-05T08:37:21.583Z,22.87
2022-10-05T08:39:56.647Z,22.68
2022-10-05T08:42:47.929Z,22.30
2022-10-05T08:46:09.329Z,22.86
2022-10-05T08:49:04.577Z,23.78
2022-10-05T08:51:40.252Z,23.49
2022-10-05T08:54:18.797Z,23.22
2022-10-05T08:57:00.219Z,23.84
2022-10-05T08:59:57.750Z,23.08
2022-10-05T09:02:43.214Z,23.50
2022-10-05T09:05:31.965Z,23.78
2022-10-05T09:08:20.955Z,23.64
2022-10-05T09:10:47.623Z,21.48
2022-10-05T09:13:42.940Z,22.40
2022-10-05T09:16:09.749Z,22.74
2022-10-05T09:18:39.399Z,22.65
2022-10-05T09:21:31.092Z,22.90
2022-10-05T09:24:27.643Z,22.78
2022-10-05T09:27:17.691Z,21.85
2022-10-05T09:29:44.314Z,22.67
2022-10-05T09:32:46.243Z,23.67
2022-10-05T09:35:58.171Z,24.41
2022-10-05T09:38:46.101Z,24.23
2022-10-05T09:41:21.927Z,24.27
2022-10-05T09:43:57.712Z,22.87
2022-10-05T09:46:30.353Z,22.71
2022-10-05T09:49:34.606Z,22.49
2022-10-05T09:52:29.917Z,24.21
2022-10-05T09:55:03.181Z,23.95
2022-10-05T09:57:54.322Z,23.48
2022-10-05T10:00:47.058Z,22.57
2022-10-05T10:03:47.017Z,22.09
2022-10-05T10:06:46.759Z,21.40
2022-10-05T10:09:29.394Z,21.05
2022-10-05T10:12:18.601Z,20.63
2022-10-05T10:14:49.792Z,20.43
2022-10-05T10:17:34.710Z,20.84
2022-10-05T10:20:19.467Z,21.02
2022-10-05T10:23:01.098Z,21.53
2022-10-05T10:25:38.986Z,22.07
2022-10-05T10:28:47.078Z,22.34
2022-10-05T10:31:49.717Z,21.61
2022-10-05T10:34:30.561Z,22.23
2022-10-05T10:37:17.200Z,22.91
2022-10-05T10:40:14.838Z,22.08
2022-10-05T10:43:39.405Z,22.72
2022-10-05T10:46:14.917Z,23.67
2022-10-05T10:48:53.568Z,22.85
2022-10-05T10:51:46.204Z,21.94
2022-10-05T10:54:33.483Z,21.62
2022-10-05T10:57:06.156Z,21.35
2022-10-05T10:59:51.125Z,20.68
2022-10-05T11:02:29.914Z,20.15
2022-10-05T11:04:59.416Z,20.76
2022-10-05T11:08:00.101Z,19.87
2022-10-05T11:11:11.335Z,20.23
2022-10-05T11:13:52.670Z,20.13
2022-10-05T11:16:46.956Z,20.54
2022-10-05T11:19:39.899Z,21.35
2022-10-05T11:22:32.341Z,22.76
2022-10-05T11:25:28.287Z,22.76
2022-10-05T11:28:14.187Z,23.17
2022-10-05T11:31:22.680Z,23.75
2022-10-05T11:34:21.058Z,24.23
2022-10-05T11:36:50.946Z,23.55
2022-10-05T11:39:44.580Z,24.89
2022-10-05T11:42:36.901Z,25.86
2022-10-05T11:45:31.234Z,24.84
2022-10-05T11:48:01.015Z,24.56
2022-10-05T11:51:05.310Z,24.74
2022-10-05T11:53:45.877Z,24.62
2022-10-05T11:56:21.991Z,25.40
2022-10-05T11:59:04.916Z,24.95
2022-10-05T12:01:57.756Z,23.78
2022-10-05T12:04:31.756Z,22.91
2022-10-05T12:07:12.565Z,22.15
2022-10-05T12:10:15.113Z,21.66
2022-10-05T12:12:50.377Z,21.18
2022-10-05T12:15:34.788Z,20.86
2022-10-05T12:18:24.539Z,20.57
2022-10-05T12:21:32.984Z,20.35
2022-10-05T12:24:08.692Z,20.14
2022-10-05T12:27:08.698Z,20.44
2022-10-05T12:29:56.538Z,21.15
2022-10-05T12:32:34.325Z,22.04
2022-10-05T12:35:11.825Z,22.99
2022-10-05T12:37:53.829Z,23.33
2022-10-05T12:40:27.967Z,24.57
2022-10-05T12:43:09.867Z,24.76
2022-10-05T12:45:46.320Z,24.40
2022-10-05T12:48:36.640Z,24.60
2022-10-05T12:51:13.636Z,25.08
2022-10-05T12:53:48.760Z,26.60
2022-10-05T12:56:55.058Z,25.78
2022-10-05T13:00:03.365Z,26.22
2022-10-05T13:02:53.149Z,24.60
2022-10-05T13:05:30.972Z,23.94
2022-10-05T13:08:22.322Z,24.64
2022-10-05T13:11:05.767Z,23.60
2022-10-05T13:14:13.869Z,23.33
2022-10-05T13:16:45.855Z,22.46
2022-10-05T13:19:47.060Z,22.37
2022-10-05T13:22:42.562Z,23.35
2022-10-05T13:25:18.449Z,24.27
2022-10-05T13:28:16.939Z,24.30
2022-10-05T13:30:57.567Z,23.63
2022-10-05T13:33:34.091Z,23.21
2022-10-05T13:36:16.340Z,23.16
2022-10-05T13:38:58.534Z,22.74
2022-10-05T13:42:04.202Z,22.57
2022-10-05T13:44:40.053Z,22.31
2022-10-05T13:47:32.990Z,21.69
2022-10-05T13:50:14.319Z,21.33
2022-10-05T13:53:18.498Z,20.90
2022-10-05T13:55:46.961Z,21.04
2022-10-05T13:58:51.013Z,20.77
2022-10-05T14:01:29.923Z,20.53
2022-10-05T14:04:07.068Z,20.64
2022-10-05T14:06:37.388Z,20.77
2022-10-05T14:09:04.428Z,20.97
2022-10-05T14:11:33.889Z,21.19
2022-10-05T14:14:10.346Z,20.94
2022-10-05T14:16:54.594Z,20.89
2022-10-05T14:19:24.399Z,21.15
2022-10-05T14:22:11.478Z,21.14
2022-10-05T14:24:48.535Z,20.97
2022-10-05T14:27:26.036Z,20.77
2022-10-05T14:29:57.877Z,20.79
2022-10-05T14:32:27.205Z,20.65
2022-10-05T14:35:05.197Z,20.54
2022-10-05T14:37:43.507Z,20.22
2022-10-05T14:40:37.405Z,20.04
2022-10-05T14:43:16.030Z,20.13
2022-10-05T14:45:56.924Z,20.13
2022-10-05T14:48:28.000Z,20.13
2022-10-05T14:50:56.373Z,20.16
2022-10-05T14:53:25.357Z,20.09
2022-10-05T14:56:11.178Z,20.03
2022-10-05T14:58:47.999Z,19.88
2022-10-05T15:01:20.850Z,19.78
2022-10-05T15:04:02.380Z,19.95
2022-10-05T15:06:35.526Z,19.79
2022-10-05T15:09:45.141Z,19.68
2022-10-05T15:12:19.359Z,19.46
2022-10-05T15:14:47.612Z,19.36
2022-10-05T15:17:20.441Z,19.52
2022-10-05T15:19:54.267Z,19.38
2022-10-05T15:22:41.200Z,19.20
2022-10-05T15:25:16.037Z,19.19
2022-10-05T15:28:04.788Z,19.05
2022-10-05T15:30:37.427Z,18.96
2022-10-05T15:33:13.080Z,19.10
2022-10-05T15:35:49.762Z,19.03
2022-10-05T15:38:26.730Z,18.83
2022-10-05T15:41:08.493Z,18.89
2022-10-05T15:44:07.703Z,18.59
2022-10-05T15:46:49.801Z,18.49
2022-10-05T15:49:22.543Z,18.51
2022-10-05T15:52:24.708Z,18.29
2022-10-05T15:55:00.671Z,18.23
2022-10-05T15:57:53.571Z,18.19
2022-10-05T16:00:22.345Z,18.01
2022-10-05T16:02:55.050Z,18.11
2022-10-05T16:05:52.371Z,18.04
2022-10-05T16:08:54.374Z,17.82
2022-10-05T16:11:36.705Z,17.80
2022-10-05T16:14:21.484Z,17.79
2022-10-05T16:17:25.534Z,17.50
2022-10-05T16:20:21.842Z,17.46
2022-10-05T16:23:09.669Z,17.31
2022-10-05T16:25:54.485Z,17.18
2022-10-05T16:28:53.096Z,17.24
2022-10-05T16:31:37.611Z,17.11
2022-10-05T16:34:17.305Z,16.89
2022-10-05T16:36:50.296Z,16.84
2022-10-05T16:39:28.111Z,16.81
2022-10-05T16:42:20.508Z,16.83
2022-10-05T16:44:56.245Z,16.74
2022-10-05T16:47:40.021Z,16.71
2022-10-05T16:50:12.774Z,16.67
2022-10-05T16:52:44.473Z,16.51
2022-10-05T16:55:20.120Z,16.58
2022-10-05T16:57:56.839Z,16.48
2022-10-05T17:00:43.723Z,16.51
2022-10-05T17:03:39.045Z,16.18
2022-10-05T17:06:14.494Z,16.14
2022-10-05T17:08:41.191Z,16.08
2022-10-05T17:11:23.907Z,16.17
2022-10-05T17:14:18.972Z,16.19
2022-10-05T17:17:38.764Z,16.11
2022-10-05T17:20:29.789Z,15.85
2022-10-05T17:23:29.364Z,15.69
2022-10-05T17:26:20.571Z,15.44
2022-10-05T17:29:09.344Z,15.26
2022-10-05T17:32:00.803Z,15.22
2022-10-05T17:34:30.626Z,15.15
2022-10-05T17:37:14.748Z,15.19
2022-10-05T17:39:53.160Z,15.09
2022-10-05T17:42:42.875Z,15.12
2022-10-05T17:45:12.393Z,15.15
2022-10-05T17:48:03.111Z,15.16
2022-10-05T17:51:06.189Z,15.00
2022-10-05T17:53:56.249Z,15.00
2022-10-05T17:56:23.484Z,14.91
2022-10-05T17:58:54.662Z,14.79
2022-10-05T18:01:40.844Z,14.64
2022-10-05T18:04:13.499Z,14.52
2022-10-05T18:06:47.657Z,14.64
2022-10-05T18:09:17.022Z,14.59
2022-10-05T18:11:48.126Z,14.48
2022-10-05T18:14:25.100Z,14.40
2022-10-05T18:17:10.610Z,14.45
2022-10-05T18:19:39.630Z,14.31
2022-10-05T18:22:18.337Z,14.37
2022-10-05T18:24:53.132Z,14.44
2022-10-05T18:27:51.788Z,14.29
2022-10-05T18:30:24.155Z,14.17
2022-10-05T18:33:05.936Z,14.18
2022-10-05T18:35:58.688Z,14.12
2022-10-05T18:38:42.277Z,14.26
2022-10-05T18:41:42.913Z,14.18
2022-10-05T18:44:21.762Z,14.07
2022-10-05T18:47:18.088Z,13.98
2022-10-05T18:50:21.602Z,13.95
2022-10-05T18:53:14.361Z,14.03
2022-10-05T18:56:04.004Z,13.87
2022-10-05T18:58:30.890Z,13.78
2022-10-05T19:01:28.619Z,13.61
2022-10-05T19:04:19.184Z,13.43
2022-10-05T19:07:05.126Z,13.45
2022-10-05T19:09:38.669Z,13.58
2022-10-05T19:12:26.663Z,13.67
2022-10-05T19:15:31.014Z,13.68
2022-10-05T19:18:29.670Z,13.54
2022-10-05T19:21:08.789Z,13.55
2022-10-05T19:23:45.180Z,13.46
2022-10-05T19:26:34.676Z,13.34
2022-10-05T19:29:27.287Z,13.27
2022-10-05T19:32:02.306Z,13.19
2022-10-05T19:34:37.985Z,13.19
2022-10-05T19:37:14.066Z,13.20
2022-10-05T19:39:55.179Z,13.34
2022-10-05T19:42:39.962Z,13.45
2022-10-05T19:45:24.567Z,13.24
2022-10-05T19:48:23.447Z,13.12
2022-10-05T19:50:59.157Z,13.01
2022-10-05T19:53:32.901Z,12.93
2022-10-05T19:56:31.071Z,12.79
2022-10-05T19:59:09.486Z,12.80
2022-10-05T20:01:38.533Z,12.85
2022-10-05T20:04:05.414Z,12.79
2022-10-05T20:06:32.098Z,12.80
2022-10-05T20:09:01.675Z,12.80
2022-10-05T20:11:29.193Z,12.79
2022-10-05T20:14:01.962Z,12.77
2022-10-05T20:16:49.331Z,12.62
2022-10-05T20:19:43.366Z,12.70
2022-10-05T20:22:28.264Z,12.43
2022-10-05T20:25:01.249Z,12.38
2022-10-05T20:27:43.098Z,12.24
2022-10-05T20:30:12.589Z,12.35
2022-10-05T20:32:39.294Z,12.25
2022-10-05T20:35:07.071Z,12.14
2022-10-05T20:37:34.030Z,12.19
2022-10-05T20:40:00.719Z,12.32
2022-10-05T20:42:27.382Z,12.42
2022-10-05T20:44:56.862Z,12.12
2022-10-05T20:47:25.113Z,12.15
2022-10-05T20:49:53.604Z,12.09
2022-10-05T20:52:21.219Z,11.98
2022-10-05T20:54:48.216Z,11.92
2022-10-05T20:57:15.017Z,12.01
2022-10-05T20:59:41.767Z,12.04
2022-10-05T21:02:08.548Z,12.06
2022-10-05T21:04:42.197Z,12.04
2022-10-05T21:07:09.314Z,12.01
2022-10-05T21:09:38.553Z,12.05
2022-10-05T21:12:05.591Z,11.96
2022-10-05T21:14:34.575Z,12.13
2022-10-05T21:17:02.221Z,12.03
2022-10-05T21:19:29.698Z,12.04
2022-10-05T21:21:59.621Z,12.39
2022-10-05T21:24:26.384Z,12.29
2022-10-05T21:26:56.848Z,11.80
2022-10-05T21:29:23.642Z,11.90
2022-10-05T21:31:50.693Z,11.75
2022-10-05T21:34:17.393Z,11.87
2022-10-05T21:36:44.189Z,11.92
2022-10-05T21:39:11.066Z,11.92
2022-10-05T21:41:37.733Z,11.99
2022-10-05T21:44:06.388Z,11.90
2022-10-05T21:46:36.219Z,12.09
2022-10-05T21:49:03.089Z,12.06
2022-10-05T21:51:30.091Z,11.95
2022-10-05T21:54:08.418Z,12.07
2022-10-05T21:56:38.457Z,11.86
2022-10-05T21:59:08.597Z,12.03
2022-10-05T22:01:36.083Z,12.09
2022-10-05T22:04:04.138Z,12.10
2022-10-05T22:06:31.371Z,11.86
2022-10-05T22:08:59.652Z,11.87
2022-10-05T22:11:26.640Z,11.89
2022-10-05T22:13:54.247Z,11.62
2022-10-05T22:16:23.769Z,11.67
2022-10-05T22:18:50.854Z,11.57
2022-10-05T22:21:17.599Z,11.60
2022-10-05T22:23:46.236Z,11.42
2022-10-05T22:26:16.932Z,11.48
2022-10-05T22:28:44.582Z,11.52
2022-10-05T22:31:12.855Z,11.55
2022-10-05T22:33:41.068Z,11.70
2022-10-05T22:36:08.791Z,11.51
2022-10-05T22:38:35.603Z,11.71
2022-10-05T22:41:02.909Z,11.75
2022-10-05T22:43:29.662Z,11.70
2022-10-05T22:45:56.549Z,11.53
2022-10-05T22:48:23.377Z,11.48
2022-10-05T22:50:50.229Z,11.41
2022-10-05T22:53:17.276Z,11.36
2022-10-05T22:55:43.988Z,11.36
2022-10-05T22:58:10.797Z,11.18
2022-10-05T23:00:58.974Z,11.31
2022-10-05T23:03:24.293Z,11.26
2022-10-05T23:05:57.421Z,11.00
2022-10-05T23:08:24.566Z,10.93
2022-10-05T23:10:52.663Z,10.83
2022-10-05T23:13:19.323Z,10.78
2022-10-05T23:15:46.034Z,10.84
2022-10-05T23:18:12.730Z,10.94
2022-10-05T23:20:40.282Z,10.93
2022-10-05T23:23:06.961Z,10.63
2022-10-05T23:25:33.652Z,10.87
2022-10-05T23:28:02.015Z,10.97
2022-10-05T23:30:28.972Z,11.06
2022-10-05T23:32:55.704Z,11.02
2022-10-05T23:35:22.540Z,11.02
2022-10-05T23:37:49.327Z,11.10
2022-10-05T23:40:16.031Z,11.17
2022-10-05T23:42:42.947Z,11.20
2022-10-05T23:45:12.039Z,11.22
2022-10-05T23:47:40.124Z,10.90
2022-10-05T23:50:08.578Z,10.70
2022-10-05T23:52:36.241Z,10.43
2022-10-05T23:55:04.813Z,10.46
2022-10-05T23:57:31.928Z,10.28
2022-10-05T23:59:58.746Z,10.23
